Preview of NWS' New Version of Forecast
This preview is not operational and should not be used for support decisions.

Terminal Aerodrome Forecast (TAF)

Issued by National Weather Service (NWS)

                            
000
FTUS42 KKEY 160902 AAA
TAFEYW
TAF AMD
KEYW 160902Z 1609/1706 36010KT P6SM SCT025 BKN030
      TEMPO 1609/1612 SCT030
     FM161400 01010KT P6SM FEW020=